Terminal Aerodrome Forecast
Issued by NWS Knoxville/Tri Cities, TN

Home | Current Version | Previous Version | Text Only | Print | Product List | Glossary On
Versions: 1 2 3 4 5 6 7 8 9 10 11 12 13 14 15 16 17 18 19 20 21 22 23 24 25 26 27 28 29 30 31
000
FTUS44 KMRX 261120
TAFTRI
TAF
KTRI 261120Z 2612/2712 23005KT P6SM BKN012 BKN040
     FM261300 29008KT P6SM BKN012
     FM262100 30006KT P6SM BKN035
     FM270600 28005KT P6SM SCT040 BKN100=

USA.gov is the U.S. government's official web portal to all federal, state and local government web resources and services.